sensor_id;sensor_type;location;lat;lon;timestamp;P1;durP1;ratioP1;P2;durP2;ratioP2
545;SDS011;259;53.304;9.816;2023-05-13T00:01:13;4.93;;;4.53;;
545;SDS011;259;53.304;9.816;2023-05-13T00:03:40;4.53;;;4.23;;
545;SDS011;259;53.304;9.816;2023-05-13T00:06:06;4.67;;;4.37;;
545;SDS011;259;53.304;9.816;2023-05-13T00:08:31;4.90;;;4.60;;
545;SDS011;259;53.304;9.816;2023-05-13T00:10:57;4.77;;;4.40;;
545;SDS011;259;53.304;9.816;2023-05-13T00:13:23;5.20;;;4.83;;
545;SDS011;259;53.304;9.816;2023-05-13T00:15:49;4.70;;;4.40;;
545;SDS011;259;53.304;9.816;2023-05-13T00:18:15;4.60;;;4.20;;
545;SDS011;259;53.304;9.816;2023-05-13T00:20:41;4.80;;;4.50;;
545;SDS011;259;53.304;9.816;2023-05-13T00:23:06;5.30;;;4.90;;
545;SDS011;259;53.304;9.816;2023-05-13T00:25:32;4.30;;;4.00;;
545;SDS011;259;53.304;9.816;2023-05-13T00:27:58;4.83;;;4.50;;
545;SDS011;259;53.304;9.816;2023-05-13T00:30:24;4.30;;;4.00;;
545;SDS011;259;53.304;9.816;2023-05-13T00:32:50;4.83;;;4.50;;
545;SDS011;259;53.304;9.816;2023-05-13T00:35:16;5.83;;;3.97;;
545;SDS011;259;53.304;9.816;2023-05-13T00:37:42;5.60;;;5.10;;
545;SDS011;259;53.304;9.816;2023-05-13T00:40:16;5.37;;;4.97;;
545;SDS011;259;53.304;9.816;2023-05-13T00:42:45;5.03;;;4.67;;
545;SDS011;259;53.304;9.816;2023-05-13T00:45:11;4.90;;;4.60;;
545;SDS011;259;53.304;9.816;2023-05-13T00:47:37;5.03;;;4.73;;
545;SDS011;259;53.304;9.816;2023-05-13T00:50:05;4.80;;;4.50;;
545;SDS011;259;53.304;9.816;2023-05-13T00:52:32;4.90;;;4.60;;
545;SDS011;259;53.304;9.816;2023-05-13T00:54:58;5.50;;;5.10;;
545;SDS011;259;53.304;9.816;2023-05-13T00:57:24;4.90;;;4.60;;
545;SDS011;259;53.304;9.816;2023-05-13T00:59:50;4.83;;;4.13;;
545;SDS011;259;53.304;9.816;2023-05-13T01:02:33;4.30;;;4.10;;
545;SDS011;259;53.304;9.816;2023-05-13T01:09:19;5.50;;;5.20;;
545;SDS011;259;53.304;9.816;2023-05-13T01:11:56;4.90;;;4.60;;
545;SDS011;259;53.304;9.816;2023-05-13T01:14:33;4.30;;;4.10;;
545;SDS011;259;53.304;9.816;2023-05-13T01:17:16;4.90;;;4.50;;
545;SDS011;259;53.304;9.816;2023-05-13T01:19:56;4.60;;;4.30;;
545;SDS011;259;53.304;9.816;2023-05-13T01:22:24;4.70;;;4.30;;
545;SDS011;259;53.304;9.816;2023-05-13T01:24:50;4.80;;;4.50;;
545;SDS011;259;53.304;9.816;2023-05-13T01:27:16;4.93;;;4.57;;
545;SDS011;259;53.304;9.816;2023-05-13T01:29:41;4.37;;;4.07;;
545;SDS011;259;53.304;9.816;2023-05-13T01:32:08;5.10;;;4.80;;
545;SDS011;259;53.304;9.816;2023-05-13T01:34:35;5.03;;;4.40;;
545;SDS011;259;53.304;9.816;2023-05-13T01:37:03;4.60;;;4.30;;
545;SDS011;259;53.304;9.816;2023-05-13T01:39:30;4.83;;;4.53;;
545;SDS011;259;53.304;9.816;2023-05-13T01:41:56;4.83;;;4.53;;
545;SDS011;259;53.304;9.816;2023-05-13T01:44:22;4.60;;;4.30;;
545;SDS011;259;53.304;9.816;2023-05-13T01:46:48;5.33;;;4.93;;
545;SDS011;259;53.304;9.816;2023-05-13T01:49:14;4.53;;;4.23;;
545;SDS011;259;53.304;9.816;2023-05-13T01:51:41;4.10;;;3.90;;
545;SDS011;259;53.304;9.816;2023-05-13T01:54:06;4.77;;;4.47;;
545;SDS011;259;53.304;9.816;2023-05-13T01:56:32;4.80;;;4.50;;
545;SDS011;259;53.304;9.816;2023-05-13T01:58:58;4.40;;;4.10;;
545;SDS011;259;53.304;9.816;2023-05-13T02:01:24;4.50;;;4.17;;
545;SDS011;259;53.304;9.816;2023-05-13T02:03:49;4.07;;;3.87;;
545;SDS011;259;53.304;9.816;2023-05-13T02:06:15;5.07;;;4.67;;
545;SDS011;259;53.304;9.816;2023-05-13T02:08:41;4.83;;;4.53;;
545;SDS011;259;53.304;9.816;2023-05-13T02:11:07;5.30;;;4.90;;
545;SDS011;259;53.304;9.816;2023-05-13T02:13:32;4.60;;;4.30;;
545;SDS011;259;53.304;9.816;2023-05-13T02:15:58;4.60;;;4.20;;
545;SDS011;259;53.304;9.816;2023-05-13T02:18:24;5.33;;;4.93;;
545;SDS011;259;53.304;9.816;2023-05-13T02:20:50;4.80;;;4.50;;
545;SDS011;259;53.304;9.816;2023-05-13T02:23:16;4.80;;;4.40;;
545;SDS011;259;53.304;9.816;2023-05-13T02:25:42;4.27;;;4.03;;
545;SDS011;259;53.304;9.816;2023-05-13T02:28:08;4.83;;;4.47;;
545;SDS011;259;53.304;9.816;2023-05-13T02:30:34;4.60;;;4.23;;
545;SDS011;259;53.304;9.816;2023-05-13T02:33:00;4.83;;;4.53;;
545;SDS011;259;53.304;9.816;2023-05-13T02:35:26;4.60;;;4.30;;
545;SDS011;259;53.304;9.816;2023-05-13T02:37:55;4.40;;;4.10;;
545;SDS011;259;53.304;9.816;2023-05-13T02:40:21;4.77;;;4.37;;
545;SDS011;259;53.304;9.816;2023-05-13T02:42:47;5.20;;;4.90;;
545;SDS011;259;53.304;9.816;2023-05-13T02:45:13;4.97;;;4.67;;
545;SDS011;259;53.304;9.816;2023-05-13T02:47:39;4.33;;;4.10;;
545;SDS011;259;53.304;9.816;2023-05-13T02:50:05;5.00;;;4.70;;
545;SDS011;259;53.304;9.816;2023-05-13T02:52:33;4.57;;;4.30;;
545;SDS011;259;53.304;9.816;2023-05-13T02:55:00;4.20;;;3.90;;
545;SDS011;259;53.304;9.816;2023-05-13T02:57:27;4.97;;;4.60;;
545;SDS011;259;53.304;9.816;2023-05-13T02:59:52;4.23;;;4.00;;
545;SDS011;259;53.304;9.816;2023-05-13T03:02:18;4.27;;;4.00;;
545;SDS011;259;53.304;9.816;2023-05-13T03:04:44;4.70;;;4.40;;
545;SDS011;259;53.304;9.816;2023-05-13T03:07:10;4.40;;;4.10;;
545;SDS011;259;53.304;9.816;2023-05-13T03:09:36;4.60;;;4.30;;
545;SDS011;259;53.304;9.816;2023-05-13T03:12:04;4.93;;;4.63;;
545;SDS011;259;53.304;9.816;2023-05-13T03:14:30;4.57;;;4.33;;
545;SDS011;259;53.304;9.816;2023-05-13T03:16:58;4.23;;;4.00;;
545;SDS011;259;53.304;9.816;2023-05-13T03:19:24;3.97;;;3.77;;
545;SDS011;259;53.304;9.816;2023-05-13T03:21:51;4.97;;;4.60;;
545;SDS011;259;53.304;9.816;2023-05-13T03:24:17;4.70;;;4.37;;
545;SDS011;259;53.304;9.816;2023-05-13T03:26:42;5.37;;;4.97;;
545;SDS011;259;53.304;9.816;2023-05-13T03:29:08;5.27;;;4.97;;
545;SDS011;259;53.304;9.816;2023-05-13T03:31:34;4.73;;;4.33;;
545;SDS011;259;53.304;9.816;2023-05-13T03:34:01;5.07;;;4.77;;
545;SDS011;259;53.304;9.816;2023-05-13T03:36:27;4.73;;;4.43;;
545;SDS011;259;53.304;9.816;2023-05-13T03:38:52;5.10;;;4.70;;
545;SDS011;259;53.304;9.816;2023-05-13T03:41:18;4.80;;;4.40;;
545;SDS011;259;53.304;9.816;2023-05-13T03:43:45;5.10;;;4.80;;
545;SDS011;259;53.304;9.816;2023-05-13T03:46:10;4.97;;;4.63;;
545;SDS011;259;53.304;9.816;2023-05-13T03:48:36;5.20;;;4.90;;
545;SDS011;259;53.304;9.816;2023-05-13T03:51:02;5.37;;;4.37;;
545;SDS011;259;53.304;9.816;2023-05-13T03:53:28;5.13;;;4.83;;
545;SDS011;259;53.304;9.816;2023-05-13T03:55:54;4.53;;;4.23;;
545;SDS011;259;53.304;9.816;2023-05-13T03:58:19;5.00;;;4.70;;
545;SDS011;259;53.304;9.816;2023-05-13T04:00:48;5.10;;;4.80;;
545;SDS011;259;53.304;9.816;2023-05-13T04:03:14;4.87;;;4.57;;
545;SDS011;259;53.304;9.816;2023-05-13T04:05:41;5.17;;;4.80;;
545;SDS011;259;53.304;9.816;2023-05-13T04:08:07;5.20;;;4.87;;
545;SDS011;259;53.304;9.816;2023-05-13T04:10:35;4.23;;;4.03;;
545;SDS011;259;53.304;9.816;2023-05-13T04:13:00;4.13;;;3.83;;
545;SDS011;259;53.304;9.816;2023-05-13T04:15:26;4.57;;;4.27;;
545;SDS011;259;53.304;9.816;2023-05-13T04:17:52;4.53;;;4.13;;
545;SDS011;259;53.304;9.816;2023-05-13T04:20:18;5.17;;;4.77;;
545;SDS011;259;53.304;9.816;2023-05-13T04:22:44;4.93;;;4.57;;
545;SDS011;259;53.304;9.816;2023-05-13T04:25:09;4.77;;;4.47;;
545;SDS011;259;53.304;9.816;2023-05-13T04:27:35;4.43;;;4.13;;
545;SDS011;259;53.304;9.816;2023-05-13T04:30:01;4.60;;;4.30;;
545;SDS011;259;53.304;9.816;2023-05-13T04:32:27;4.70;;;4.40;;
545;SDS011;259;53.304;9.816;2023-05-13T04:34:53;4.30;;;4.00;;
545;SDS011;259;53.304;9.816;2023-05-13T04:37:19;4.33;;;4.10;;
545;SDS011;259;53.304;9.816;2023-05-13T04:39:45;4.90;;;4.70;;
545;SDS011;259;53.304;9.816;2023-05-13T04:42:11;4.43;;;4.23;;
545;SDS011;259;53.304;9.816;2023-05-13T04:44:38;4.63;;;4.30;;
545;SDS011;259;53.304;9.816;2023-05-13T04:47:04;4.50;;;4.20;;
545;SDS011;259;53.304;9.816;2023-05-13T04:49:30;6.00;;;5.50;;
545;SDS011;259;53.304;9.816;2023-05-13T04:51:56;5.23;;;4.83;;
545;SDS011;259;53.304;9.816;2023-05-13T04:54:21;5.13;;;4.73;;
545;SDS011;259;53.304;9.816;2023-05-13T04:56:47;4.20;;;4.00;;
545;SDS011;259;53.304;9.816;2023-05-13T04:59:13;4.97;;;4.67;;
545;SDS011;259;53.304;9.816;2023-05-13T05:01:39;4.50;;;4.20;;
545;SDS011;259;53.304;9.816;2023-05-13T05:04:05;4.63;;;4.33;;
545;SDS011;259;53.304;9.816;2023-05-13T05:06:30;5.17;;;4.77;;
545;SDS011;259;53.304;9.816;2023-05-13T05:08:56;4.40;;;4.10;;
545;SDS011;259;53.304;9.816;2023-05-13T05:11:23;4.50;;;4.20;;
545;SDS011;259;53.304;9.816;2023-05-13T05:13:49;5.30;;;4.80;;
545;SDS011;259;53.304;9.816;2023-05-13T05:16:14;4.83;;;4.53;;
545;SDS011;259;53.304;9.816;2023-05-13T05:18:41;4.27;;;3.97;;
545;SDS011;259;53.304;9.816;2023-05-13T05:21:07;5.43;;;5.00;;
545;SDS011;259;53.304;9.816;2023-05-13T05:23:36;4.77;;;4.37;;
545;SDS011;259;53.304;9.816;2023-05-13T05:26:02;4.27;;;3.87;;
545;SDS011;259;53.304;9.816;2023-05-13T05:28:28;4.60;;;4.30;;
545;SDS011;259;53.304;9.816;2023-05-13T05:30:54;4.93;;;4.43;;
545;SDS011;259;53.304;9.816;2023-05-13T05:33:20;4.87;;;4.57;;
545;SDS011;259;53.304;9.816;2023-05-13T05:35:46;4.60;;;4.30;;
545;SDS011;259;53.304;9.816;2023-05-13T05:38:12;5.27;;;4.77;;
545;SDS011;259;53.304;9.816;2023-05-13T05:40:39;4.80;;;4.50;;
545;SDS011;259;53.304;9.816;2023-05-13T05:43:07;4.50;;;4.20;;
545;SDS011;259;53.304;9.816;2023-05-13T05:45:35;4.83;;;4.37;;
545;SDS011;259;53.304;9.816;2023-05-13T05:48:02;4.87;;;4.47;;
545;SDS011;259;53.304;9.816;2023-05-13T05:50:28;4.60;;;4.30;;
545;SDS011;259;53.304;9.816;2023-05-13T05:52:55;4.40;;;4.10;;
545;SDS011;259;53.304;9.816;2023-05-13T05:55:20;4.60;;;4.30;;
545;SDS011;259;53.304;9.816;2023-05-13T05:57:46;4.57;;;4.13;;
545;SDS011;259;53.304;9.816;2023-05-13T06:00:12;4.80;;;4.40;;
545;SDS011;259;53.304;9.816;2023-05-13T06:02:39;4.73;;;4.43;;
545;SDS011;259;53.304;9.816;2023-05-13T06:05:04;4.53;;;4.13;;
545;SDS011;259;53.304;9.816;2023-05-13T06:07:31;5.00;;;4.60;;
545;SDS011;259;53.304;9.816;2023-05-13T06:09:57;5.10;;;4.70;;
545;SDS011;259;53.304;9.816;2023-05-13T06:12:22;4.30;;;4.00;;
545;SDS011;259;53.304;9.816;2023-05-13T06:14:48;4.40;;;4.10;;
545;SDS011;259;53.304;9.816;2023-05-13T06:17:14;4.60;;;4.30;;
545;SDS011;259;53.304;9.816;2023-05-13T06:19:40;4.93;;;4.63;;
545;SDS011;259;53.304;9.816;2023-05-13T06:22:09;4.13;;;3.83;;
545;SDS011;259;53.304;9.816;2023-05-13T06:24:36;4.80;;;4.50;;
545;SDS011;259;53.304;9.816;2023-05-13T06:27:03;4.60;;;4.30;;
545;SDS011;259;53.304;9.816;2023-05-13T06:29:29;4.67;;;4.37;;
545;SDS011;259;53.304;9.816;2023-05-13T06:31:55;4.70;;;4.40;;
545;SDS011;259;53.304;9.816;2023-05-13T06:34:21;4.37;;;4.07;;
545;SDS011;259;53.304;9.816;2023-05-13T06:36:47;4.53;;;4.13;;
545;SDS011;259;53.304;9.816;2023-05-13T06:39:12;4.60;;;4.30;;
545;SDS011;259;53.304;9.816;2023-05-13T06:41:39;4.63;;;4.33;;
545;SDS011;259;53.304;9.816;2023-05-13T06:44:05;4.67;;;4.37;;
545;SDS011;259;53.304;9.816;2023-05-13T06:46:32;4.57;;;4.27;;
545;SDS011;259;53.304;9.816;2023-05-13T06:48:57;3.97;;;3.77;;
545;SDS011;259;53.304;9.816;2023-05-13T06:51:24;4.03;;;3.73;;
545;SDS011;259;53.304;9.816;2023-05-13T06:53:51;4.00;;;3.80;;
545;SDS011;259;53.304;9.816;2023-05-13T06:56:17;4.40;;;4.00;;
545;SDS011;259;53.304;9.816;2023-05-13T06:58:44;4.50;;;4.20;;
545;SDS011;259;53.304;9.816;2023-05-13T07:01:09;3.83;;;3.63;;
545;SDS011;259;53.304;9.816;2023-05-13T07:03:36;4.50;;;4.20;;
545;SDS011;259;53.304;9.816;2023-05-13T07:06:02;4.40;;;4.10;;
545;SDS011;259;53.304;9.816;2023-05-13T07:08:28;3.73;;;3.53;;
545;SDS011;259;53.304;9.816;2023-05-13T07:10:54;4.57;;;4.17;;
545;SDS011;259;53.304;9.816;2023-05-13T07:13:20;4.10;;;3.90;;
545;SDS011;259;53.304;9.816;2023-05-13T07:15:46;4.50;;;4.20;;
545;SDS011;259;53.304;9.816;2023-05-13T07:18:12;4.90;;;4.60;;
545;SDS011;259;53.304;9.816;2023-05-13T07:20:38;4.63;;;4.27;;
545;SDS011;259;53.304;9.816;2023-05-13T07:23:04;4.80;;;4.50;;
545;SDS011;259;53.304;9.816;2023-05-13T07:25:30;4.30;;;4.00;;
545;SDS011;259;53.304;9.816;2023-05-13T07:27:55;4.50;;;4.20;;
545;SDS011;259;53.304;9.816;2023-05-13T07:30:21;4.87;;;4.47;;
545;SDS011;259;53.304;9.816;2023-05-13T07:32:47;4.97;;;4.67;;
545;SDS011;259;53.304;9.816;2023-05-13T07:35:13;4.50;;;4.20;;
545;SDS011;259;53.304;9.816;2023-05-13T07:37:40;4.53;;;4.23;;
545;SDS011;259;53.304;9.816;2023-05-13T07:40:08;4.87;;;4.57;;
545;SDS011;259;53.304;9.816;2023-05-13T07:42:34;4.37;;;4.10;;
545;SDS011;259;53.304;9.816;2023-05-13T07:45:00;4.60;;;4.30;;
545;SDS011;259;53.304;9.816;2023-05-13T07:47:27;4.20;;;3.90;;
545;SDS011;259;53.304;9.816;2023-05-13T07:49:55;4.23;;;4.03;;
545;SDS011;259;53.304;9.816;2023-05-13T07:52:21;3.77;;;3.57;;
545;SDS011;259;53.304;9.816;2023-05-13T07:54:47;4.50;;;4.30;;
545;SDS011;259;53.304;9.816;2023-05-13T07:57:13;4.63;;;4.33;;
545;SDS011;259;53.304;9.816;2023-05-13T07:59:39;4.77;;;4.47;;
545;SDS011;259;53.304;9.816;2023-05-13T08:02:05;3.83;;;3.63;;
545;SDS011;259;53.304;9.816;2023-05-13T08:04:31;4.23;;;4.03;;
545;SDS011;259;53.304;9.816;2023-05-13T08:06:57;5.37;;;4.97;;
545;SDS011;259;53.304;9.816;2023-05-13T08:09:25;4.53;;;4.20;;
545;SDS011;259;53.304;9.816;2023-05-13T08:11:51;4.63;;;4.37;;
545;SDS011;259;53.304;9.816;2023-05-13T08:14:16;3.70;;;3.40;;
545;SDS011;259;53.304;9.816;2023-05-13T08:16:42;4.90;;;4.60;;
545;SDS011;259;53.304;9.816;2023-05-13T08:19:08;4.67;;;4.37;;
545;SDS011;259;53.304;9.816;2023-05-13T08:21:33;4.70;;;4.40;;
545;SDS011;259;53.304;9.816;2023-05-13T08:23:59;4.47;;;4.17;;
545;SDS011;259;53.304;9.816;2023-05-13T08:26:25;4.27;;;3.93;;
545;SDS011;259;53.304;9.816;2023-05-13T08:28:51;4.33;;;4.13;;
545;SDS011;259;53.304;9.816;2023-05-13T08:31:16;4.53;;;4.23;;
545;SDS011;259;53.304;9.816;2023-05-13T08:33:42;4.23;;;3.93;;
545;SDS011;259;53.304;9.816;2023-05-13T08:36:11;4.40;;;4.10;;
545;SDS011;259;53.304;9.816;2023-05-13T08:38:37;3.90;;;3.70;;
545;SDS011;259;53.304;9.816;2023-05-13T08:41:03;4.13;;;3.83;;
545;SDS011;259;53.304;9.816;2023-05-13T08:43:30;4.50;;;3.60;;
545;SDS011;259;53.304;9.816;2023-05-13T08:45:57;4.63;;;4.33;;
545;SDS011;259;53.304;9.816;2023-05-13T08:48:28;4.80;;;4.40;;
545;SDS011;259;53.304;9.816;2023-05-13T08:50:55;4.87;;;4.47;;
545;SDS011;259;53.304;9.816;2023-05-13T08:53:22;5.17;;;4.80;;
545;SDS011;259;53.304;9.816;2023-05-13T08:55:53;4.30;;;4.07;;
545;SDS011;259;53.304;9.816;2023-05-13T08:58:19;4.50;;;4.20;;
545;SDS011;259;53.304;9.816;2023-05-13T09:00:44;4.10;;;3.80;;
545;SDS011;259;53.304;9.816;2023-05-13T09:03:13;4.40;;;4.10;;
545;SDS011;259;53.304;9.816;2023-05-13T09:05:43;4.30;;;4.10;;
545;SDS011;259;53.304;9.816;2023-05-13T09:08:09;3.90;;;3.70;;
545;SDS011;259;53.304;9.816;2023-05-13T09:10:35;4.40;;;4.20;;
545;SDS011;259;53.304;9.816;2023-05-13T09:13:01;4.97;;;4.57;;
545;SDS011;259;53.304;9.816;2023-05-13T09:15:28;4.80;;;4.50;;
545;SDS011;259;53.304;9.816;2023-05-13T09:17:58;4.73;;;4.37;;
545;SDS011;259;53.304;9.816;2023-05-13T09:20:28;4.80;;;4.50;;
545;SDS011;259;53.304;9.816;2023-05-13T09:25:31;4.63;;;4.33;;
545;SDS011;259;53.304;9.816;2023-05-13T09:28:00;4.60;;;4.30;;
545;SDS011;259;53.304;9.816;2023-05-13T09:30:29;4.37;;;4.07;;
545;SDS011;259;53.304;9.816;2023-05-13T09:33:13;4.17;;;3.83;;
545;SDS011;259;53.304;9.816;2023-05-13T09:35:52;4.80;;;4.40;;
545;SDS011;259;53.304;9.816;2023-05-13T09:38:18;4.40;;;4.10;;
545;SDS011;259;53.304;9.816;2023-05-13T09:40:53;4.30;;;4.03;;
545;SDS011;259;53.304;9.816;2023-05-13T09:43:23;4.10;;;3.90;;
545;SDS011;259;53.304;9.816;2023-05-13T09:45:51;4.10;;;3.90;;
545;SDS011;259;53.304;9.816;2023-05-13T09:48:24;3.90;;;3.60;;
545;SDS011;259;53.304;9.816;2023-05-13T09:50:52;4.03;;;3.73;;
545;SDS011;259;53.304;9.816;2023-05-13T09:53:19;4.23;;;3.97;;
545;SDS011;259;53.304;9.816;2023-05-13T09:55:48;4.27;;;3.97;;
545;SDS011;259;53.304;9.816;2023-05-13T09:58:16;3.97;;;3.70;;
545;SDS011;259;53.304;9.816;2023-05-13T10:00:46;4.17;;;3.87;;
545;SDS011;259;53.304;9.816;2023-05-13T10:03:12;3.90;;;3.70;;
545;SDS011;259;53.304;9.816;2023-05-13T10:05:39;4.73;;;4.40;;
545;SDS011;259;53.304;9.816;2023-05-13T10:08:09;3.93;;;3.73;;
545;SDS011;259;53.304;9.816;2023-05-13T10:10:37;4.50;;;4.30;;
545;SDS011;259;53.304;9.816;2023-05-13T10:13:07;4.47;;;4.17;;
545;SDS011;259;53.304;9.816;2023-05-13T10:15:35;3.80;;;3.60;;
545;SDS011;259;53.304;9.816;2023-05-13T10:18:01;4.63;;;4.33;;
545;SDS011;259;53.304;9.816;2023-05-13T10:20:28;4.03;;;3.73;;
545;SDS011;259;53.304;9.816;2023-05-13T10:22:54;4.50;;;4.20;;
545;SDS011;259;53.304;9.816;2023-05-13T10:25:21;4.23;;;3.93;;
545;SDS011;259;53.304;9.816;2023-05-13T10:27:47;4.03;;;3.80;;
545;SDS011;259;53.304;9.816;2023-05-13T10:30:13;3.80;;;3.57;;
545;SDS011;259;53.304;9.816;2023-05-13T10:32:41;4.10;;;3.90;;
545;SDS011;259;53.304;9.816;2023-05-13T10:35:08;4.60;;;4.30;;
545;SDS011;259;53.304;9.816;2023-05-13T10:43:18;4.23;;;4.03;;
545;SDS011;259;53.304;9.816;2023-05-13T10:45:46;3.80;;;3.60;;
545;SDS011;259;53.304;9.816;2023-05-13T10:48:18;4.03;;;3.83;;
545;SDS011;259;53.304;9.816;2023-05-13T10:53:24;4.63;;;4.20;;
545;SDS011;259;53.304;9.816;2023-05-13T10:55:56;3.63;;;3.43;;
545;SDS011;259;53.304;9.816;2023-05-13T10:58:30;3.33;;;3.13;;
545;SDS011;259;53.304;9.816;2023-05-13T11:01:14;3.90;;;3.60;;
545;SDS011;259;53.304;9.816;2023-05-13T11:03:52;4.07;;;3.87;;
545;SDS011;259;53.304;9.816;2023-05-13T11:06:20;4.00;;;3.80;;
545;SDS011;259;53.304;9.816;2023-05-13T11:08:51;4.40;;;4.10;;
545;SDS011;259;53.304;9.816;2023-05-13T11:11:19;4.60;;;4.30;;
545;SDS011;259;53.304;9.816;2023-05-13T11:13:50;4.37;;;4.07;;
545;SDS011;259;53.304;9.816;2023-05-13T11:16:19;3.73;;;3.53;;
545;SDS011;259;53.304;9.816;2023-05-13T11:18:47;4.00;;;3.80;;
545;SDS011;259;53.304;9.816;2023-05-13T11:21:13;3.80;;;3.60;;
545;SDS011;259;53.304;9.816;2023-05-13T11:23:49;4.07;;;3.77;;
545;SDS011;259;53.304;9.816;2023-05-13T11:26:23;3.80;;;3.60;;
545;SDS011;259;53.304;9.816;2023-05-13T11:28:52;3.63;;;3.43;;
545;SDS011;259;53.304;9.816;2023-05-13T11:31:29;3.50;;;3.30;;
545;SDS011;259;53.304;9.816;2023-05-13T11:34:14;4.80;;;3.57;;
545;SDS011;259;53.304;9.816;2023-05-13T11:37:05;3.87;;;3.67;;
545;SDS011;259;53.304;9.816;2023-05-13T11:39:33;3.60;;;3.40;;
545;SDS011;259;53.304;9.816;2023-05-13T11:42:00;4.03;;;3.73;;
545;SDS011;259;53.304;9.816;2023-05-13T11:44:31;4.33;;;4.03;;
545;SDS011;259;53.304;9.816;2023-05-13T11:46:59;3.50;;;3.30;;
545;SDS011;259;53.304;9.816;2023-05-13T11:49:39;3.40;;;3.20;;
545;SDS011;259;53.304;9.816;2023-05-13T11:52:08;3.70;;;3.50;;
545;SDS011;259;53.304;9.816;2023-05-13T11:54:46;3.53;;;3.23;;
545;SDS011;259;53.304;9.816;2023-05-13T12:04:52;4.60;;;4.20;;
545;SDS011;259;53.304;9.816;2023-05-13T12:07:22;3.93;;;3.73;;
545;SDS011;259;53.304;9.816;2023-05-13T12:09:50;3.63;;;3.43;;
545;SDS011;259;53.304;9.816;2023-05-13T12:12:18;3.40;;;3.17;;
545;SDS011;259;53.304;9.816;2023-05-13T12:14:47;3.50;;;3.30;;
545;SDS011;259;53.304;9.816;2023-05-13T12:17:17;3.87;;;3.57;;
545;SDS011;259;53.304;9.816;2023-05-13T12:20:05;3.50;;;3.30;;
545;SDS011;259;53.304;9.816;2023-05-13T12:28:18;3.67;;;3.47;;
545;SDS011;259;53.304;9.816;2023-05-13T12:30:58;3.70;;;3.50;;
545;SDS011;259;53.304;9.816;2023-05-13T12:33:29;4.13;;;3.83;;
545;SDS011;259;53.304;9.816;2023-05-13T12:38:52;3.80;;;3.60;;
545;SDS011;259;53.304;9.816;2023-05-13T12:41:20;3.97;;;3.77;;
545;SDS011;259;53.304;9.816;2023-05-13T12:43:47;3.80;;;3.60;;
545;SDS011;259;53.304;9.816;2023-05-13T12:46:12;3.63;;;3.43;;
545;SDS011;259;53.304;9.816;2023-05-13T12:48:38;3.67;;;3.47;;
545;SDS011;259;53.304;9.816;2023-05-13T12:51:04;3.70;;;3.50;;
545;SDS011;259;53.304;9.816;2023-05-13T12:53:30;3.70;;;3.50;;
545;SDS011;259;53.304;9.816;2023-05-13T12:55:55;3.93;;;3.73;;
545;SDS011;259;53.304;9.816;2023-05-13T12:58:21;3.70;;;3.50;;
545;SDS011;259;53.304;9.816;2023-05-13T13:00:47;3.93;;;3.73;;
545;SDS011;259;53.304;9.816;2023-05-13T13:03:12;4.63;;;4.33;;
545;SDS011;259;53.304;9.816;2023-05-13T13:05:38;3.50;;;3.30;;
545;SDS011;259;53.304;9.816;2023-05-13T13:08:04;3.90;;;3.70;;
545;SDS011;259;53.304;9.816;2023-05-13T13:10:29;4.00;;;3.80;;
545;SDS011;259;53.304;9.816;2023-05-13T13:12:55;2.97;;;2.83;;
545;SDS011;259;53.304;9.816;2023-05-13T13:15:21;5.60;;;3.90;;
545;SDS011;259;53.304;9.816;2023-05-13T13:17:47;5.90;;;4.17;;
545;SDS011;259;53.304;9.816;2023-05-13T13:20:12;4.50;;;4.03;;
545;SDS011;259;53.304;9.816;2023-05-13T13:22:38;4.27;;;3.87;;
545;SDS011;259;53.304;9.816;2023-05-13T13:25:04;6.87;;;4.40;;
545;SDS011;259;53.304;9.816;2023-05-13T13:27:31;3.83;;;3.47;;
545;SDS011;259;53.304;9.816;2023-05-13T13:29:59;5.27;;;4.03;;
545;SDS011;259;53.304;9.816;2023-05-13T13:32:25;4.30;;;3.90;;
545;SDS011;259;53.304;9.816;2023-05-13T13:34:51;3.60;;;3.40;;
545;SDS011;259;53.304;9.816;2023-05-13T13:37:17;4.53;;;3.70;;
545;SDS011;259;53.304;9.816;2023-05-13T13:39:42;4.40;;;4.07;;
545;SDS011;259;53.304;9.816;2023-05-13T13:42:08;4.30;;;4.00;;
545;SDS011;259;53.304;9.816;2023-05-13T13:44:34;4.27;;;3.87;;
545;SDS011;259;53.304;9.816;2023-05-13T13:47:01;4.43;;;4.10;;
545;SDS011;259;53.304;9.816;2023-05-13T13:49:26;5.80;;;4.17;;
545;SDS011;259;53.304;9.816;2023-05-13T13:51:52;3.63;;;3.33;;
545;SDS011;259;53.304;9.816;2023-05-13T13:54:18;4.17;;;3.77;;
545;SDS011;259;53.304;9.816;2023-05-13T13:56:44;3.60;;;3.30;;
545;SDS011;259;53.304;9.816;2023-05-13T13:59:10;3.87;;;3.57;;
545;SDS011;259;53.304;9.816;2023-05-13T14:01:36;4.50;;;3.93;;
545;SDS011;259;53.304;9.816;2023-05-13T14:04:14;5.83;;;3.83;;
545;SDS011;259;53.304;9.816;2023-05-13T14:06:44;6.30;;;4.30;;
545;SDS011;259;53.304;9.816;2023-05-13T14:09:10;4.07;;;3.77;;
545;SDS011;259;53.304;9.816;2023-05-13T14:11:36;4.13;;;3.50;;
545;SDS011;259;53.304;9.816;2023-05-13T14:14:02;7.33;;;3.80;;
545;SDS011;259;53.304;9.816;2023-05-13T14:16:28;4.10;;;3.60;;
545;SDS011;259;53.304;9.816;2023-05-13T14:18:54;3.93;;;3.53;;
545;SDS011;259;53.304;9.816;2023-05-13T14:21:19;4.07;;;3.77;;
545;SDS011;259;53.304;9.816;2023-05-13T14:23:45;4.93;;;3.70;;
545;SDS011;259;53.304;9.816;2023-05-13T14:26:11;4.50;;;4.17;;
545;SDS011;259;53.304;9.816;2023-05-13T14:28:39;3.60;;;3.37;;
545;SDS011;259;53.304;9.816;2023-05-13T14:31:05;4.80;;;3.60;;
545;SDS011;259;53.304;9.816;2023-05-13T14:33:31;7.40;;;4.37;;
545;SDS011;259;53.304;9.816;2023-05-13T14:35:57;6.70;;;3.80;;
545;SDS011;259;53.304;9.816;2023-05-13T14:38:22;4.60;;;4.20;;
545;SDS011;259;53.304;9.816;2023-05-13T14:40:48;4.60;;;3.17;;
545;SDS011;259;53.304;9.816;2023-05-13T14:43:14;3.83;;;3.50;;
545;SDS011;259;53.304;9.816;2023-05-13T14:45:40;3.67;;;3.23;;
545;SDS011;259;53.304;9.816;2023-05-13T14:48:05;4.00;;;3.60;;
545;SDS011;259;53.304;9.816;2023-05-13T14:50:31;6.20;;;3.50;;
545;SDS011;259;53.304;9.816;2023-05-13T14:52:57;3.33;;;3.07;;
545;SDS011;259;53.304;9.816;2023-05-13T14:55:23;4.70;;;4.27;;
545;SDS011;259;53.304;9.816;2023-05-13T14:57:49;4.90;;;4.10;;
545;SDS011;259;53.304;9.816;2023-05-13T15:00:15;4.37;;;3.97;;
545;SDS011;259;53.304;9.816;2023-05-13T15:02:41;4.90;;;3.60;;
545;SDS011;259;53.304;9.816;2023-05-13T15:05:06;11.10;;;4.20;;
545;SDS011;259;53.304;9.816;2023-05-13T15:07:32;5.00;;;3.70;;
545;SDS011;259;53.304;9.816;2023-05-13T15:09:58;4.13;;;3.57;;
545;SDS011;259;53.304;9.816;2023-05-13T15:12:24;5.20;;;3.80;;
545;SDS011;259;53.304;9.816;2023-05-13T15:14:53;4.13;;;3.83;;
545;SDS011;259;53.304;9.816;2023-05-13T15:17:19;5.63;;;3.30;;
545;SDS011;259;53.304;9.816;2023-05-13T15:19:45;3.80;;;3.50;;
545;SDS011;259;53.304;9.816;2023-05-13T15:22:11;4.07;;;3.77;;
545;SDS011;259;53.304;9.816;2023-05-13T15:24:37;3.80;;;3.50;;
545;SDS011;259;53.304;9.816;2023-05-13T15:27:03;3.13;;;2.93;;
545;SDS011;259;53.304;9.816;2023-05-13T15:29:29;3.07;;;2.87;;
545;SDS011;259;53.304;9.816;2023-05-13T15:31:55;4.73;;;3.20;;
545;SDS011;259;53.304;9.816;2023-05-13T15:34:22;4.50;;;2.63;;
545;SDS011;259;53.304;9.816;2023-05-13T15:36:48;2.90;;;2.73;;
545;SDS011;259;53.304;9.816;2023-05-13T15:39:13;3.27;;;3.03;;
545;SDS011;259;53.304;9.816;2023-05-13T15:41:40;3.90;;;3.47;;
545;SDS011;259;53.304;9.816;2023-05-13T15:44:06;3.60;;;3.37;;
545;SDS011;259;53.304;9.816;2023-05-13T15:46:32;3.50;;;3.23;;
545;SDS011;259;53.304;9.816;2023-05-13T15:48:58;3.20;;;3.00;;
545;SDS011;259;53.304;9.816;2023-05-13T15:51:25;3.47;;;3.27;;
545;SDS011;259;53.304;9.816;2023-05-13T15:53:51;3.20;;;3.00;;
545;SDS011;259;53.304;9.816;2023-05-13T15:56:17;3.13;;;2.93;;
545;SDS011;259;53.304;9.816;2023-05-13T15:58:46;3.17;;;2.97;;
545;SDS011;259;53.304;9.816;2023-05-13T16:01:11;3.13;;;2.87;;
545;SDS011;259;53.304;9.816;2023-05-13T16:03:37;3.40;;;3.20;;
545;SDS011;259;53.304;9.816;2023-05-13T16:06:03;3.00;;;2.80;;
545;SDS011;259;53.304;9.816;2023-05-13T16:08:29;2.93;;;2.73;;
545;SDS011;259;53.304;9.816;2023-05-13T16:10:54;3.30;;;3.10;;
545;SDS011;259;53.304;9.816;2023-05-13T16:13:20;3.50;;;3.20;;
545;SDS011;259;53.304;9.816;2023-05-13T16:15:46;3.10;;;2.90;;